createdAt,value
2023-04-01T00:03:31.921Z,98339.81
2023-04-01T00:07:35.397Z,98356.63
2023-04-01T00:11:38.503Z,98352.31
2023-04-01T00:15:43.448Z,98356.81
2023-04-01T00:19:46.537Z,98363.03
2023-04-01T00:23:49.543Z,98371.91
2023-04-01T00:27:52.949Z,98383.41
2023-04-01T00:31:57.987Z,98384.38
2023-04-01T00:36:09.450Z,98384.41
2023-04-01T00:40:25.379Z,98376.50
2023-04-01T00:44:30.509Z,98379.19
2023-04-01T00:48:38.389Z,98386.22
2023-04-01T00:52:41.919Z,98381.03
2023-04-01T00:56:49.761Z,98374.97
2023-04-01T01:00:53.683Z,98376.72
2023-04-01T01:04:58.196Z,98364.50
2023-04-01T01:09:12.596Z,98377.78
2023-04-01T01:13:21.294Z,98367.22
2023-04-01T01:17:33.483Z,98372.47
2023-04-01T01:22:01.873Z,98371.59
2023-04-01T01:26:31.043Z,98375.13
2023-04-01T01:30:45.154Z,98369.75
2023-04-01T01:34:55.954Z,98373.25
2023-04-01T01:39:01.324Z,98362.69
2023-04-01T01:43:08.386Z,98361.81
2023-04-01T01:47:12.444Z,98364.59
2023-04-01T01:51:15.632Z,98369.03
2023-04-01T01:55:30.318Z,98366.47
2023-04-01T01:59:37.421Z,98366.63
2023-04-01T02:03:42.513Z,98361.38
2023-04-01T02:07:50.620Z,98358.81
2023-04-01T02:11:59.865Z,98361.50
2023-04-01T02:16:09.308Z,98354.63
2023-04-01T02:20:17.995Z,98360.81
2023-04-01T02:24:23.455Z,98352.09
2023-04-01T02:28:29.355Z,98364.44
2023-04-01T02:32:35.978Z,98363.81
2023-04-01T02:36:40.236Z,98365.59
2023-04-01T02:40:45.336Z,98363.88
2023-04-01T02:44:49.975Z,98361.31
2023-04-01T02:48:53.054Z,98358.72
2023-04-01T02:52:57.172Z,98355.22
2023-04-01T02:57:00.479Z,98359.66
2023-04-01T03:01:05.182Z,98357.09
2023-04-01T03:05:09.027Z,98354.47
2023-04-01T03:09:12.468Z,98373.78
2023-04-01T03:13:15.788Z,98371.13
2023-04-01T03:17:21.475Z,98366.84
2023-04-01T03:21:26.367Z,98373.94
2023-04-01T03:25:31.802Z,98380.13
2023-04-01T03:29:35.441Z,98372.31
2023-04-01T03:33:40.398Z,98367.06
2023-04-01T03:37:44.039Z,98369.75
2023-04-01T03:41:47.607Z,98366.31
2023-04-01T03:45:53.527Z,98366.31
2023-04-01T03:49:58.168Z,98373.31
2023-04-01T03:54:02.359Z,98382.97
2023-04-01T03:58:05.790Z,98381.31
2023-04-01T04:02:08.944Z,98377.81
2023-04-01T04:06:15.164Z,98374.34
2023-04-01T04:10:18.724Z,98381.41
2023-04-01T04:14:21.798Z,98372.63
2023-04-01T04:18:25.340Z,98374.47
2023-04-01T04:22:29.772Z,98372.75
2023-04-01T04:26:32.855Z,98373.69
2023-04-01T04:30:37.206Z,98368.44
2023-04-01T04:34:40.405Z,98372.84
2023-04-01T04:38:45.161Z,98373.81
2023-04-01T04:42:48.414Z,98362.50
2023-04-01T04:46:53.158Z,98365.22
2023-04-01T04:50:56.320Z,98359.97
2023-04-01T04:55:02.000Z,98361.75
2023-04-01T04:59:05.683Z,98364.41
2023-04-01T05:03:18.542Z,98364.44
2023-04-01T05:07:21.802Z,98368.81
2023-04-01T05:11:27.014Z,98367.97
2023-04-01T05:15:30.286Z,98363.56
2023-04-01T05:19:33.556Z,98366.22
2023-04-01T05:23:37.743Z,98368.03
2023-04-01T05:27:42.288Z,98361.84
2023-04-01T05:31:45.397Z,98376.75
2023-04-01T05:35:48.441Z,98376.66
2023-04-01T05:39:52.307Z,98382.72
2023-04-01T05:43:57.221Z,98390.53
2023-04-01T05:48:18.530Z,98401.78
2023-04-01T05:52:21.670Z,98409.59
2023-04-01T05:56:24.749Z,98409.41
2023-04-01T06:00:29.935Z,98411.09
2023-04-01T06:04:39.476Z,98421.50
2023-04-01T06:08:42.549Z,98436.31
2023-04-01T06:12:58.136Z,98422.22
2023-04-01T06:17:19.961Z,98427.44
2023-04-01T06:21:57.087Z,98420.38
2023-04-01T06:26:16.768Z,98422.88
2023-04-01T06:30:36.924Z,98426.25
2023-04-01T06:34:58.405Z,98432.09
2023-04-01T06:39:30.246Z,98425.66
2023-04-01T06:43:44.397Z,98430.59
2023-04-01T06:48:24.479Z,98431.13
2023-04-01T06:52:52.520Z,98428.16
2023-04-01T06:57:26.138Z,98441.97
2023-04-01T07:01:38.605Z,98435.66
2023-04-01T07:05:45.045Z,98446.81
2023-04-01T07:09:53.728Z,98449.16
2023-04-01T07:14:18.633Z,98451.53
2023-04-01T07:18:30.716Z,98450.47
2023-04-01T07:22:36.468Z,98456.50
2023-04-01T07:26:56.792Z,98451.91
2023-04-01T07:31:17.332Z,98443.69
2023-04-01T07:35:29.992Z,98441.50
2023-04-01T07:39:43.516Z,98433.41
2023-04-01T07:44:17.018Z,98431.41
2023-04-01T07:48:26.913Z,98433.88
2023-04-01T07:52:40.605Z,98423.00
2023-04-01T07:56:58.009Z,98448.25
2023-04-01T08:01:27.192Z,98444.34
2023-04-01T08:05:35.222Z,98453.44
2023-04-01T08:09:48.613Z,98439.75
2023-04-01T08:14:32.939Z,98449.28
2023-04-01T08:19:02.051Z,98441.97
2023-04-01T08:23:13.904Z,98444.41
2023-04-01T08:27:24.546Z,98460.13
2023-04-01T08:31:36.192Z,98453.16
2023-04-01T08:35:47.982Z,98459.31
2023-04-01T08:39:54.831Z,98459.38
2023-04-01T08:44:29.194Z,98461.19
2023-04-01T08:48:52.091Z,98476.19
2023-04-01T08:53:05.826Z,98461.25
2023-04-01T08:57:17.454Z,98467.31
2023-04-01T09:02:00.788Z,98469.53
2023-04-01T09:06:37.794Z,98466.22
2023-04-01T09:10:58.215Z,98468.69
2023-04-01T09:15:43.308Z,98469.69
2023-04-01T09:20:01.901Z,98478.75
2023-04-01T09:24:29.519Z,98486.94
2023-04-01T09:28:44.049Z,98500.41
2023-04-01T09:33:07.636Z,98482.09
2023-04-01T09:37:22.695Z,98483.09
2023-04-01T09:41:33.299Z,98477.00
2023-04-01T09:46:15.294Z,98481.25
2023-04-01T09:50:36.528Z,98482.16
2023-04-01T09:55:05.233Z,98476.06
2023-04-01T09:59:26.654Z,98472.59
2023-04-01T10:04:35.480Z,98469.13
2023-04-01T10:09:26.067Z,98479.72
2023-04-01T10:14:04.634Z,98478.69
2023-04-01T10:18:40.721Z,98470.56
2023-04-01T10:23:43.205Z,98469.13
2023-04-01T10:28:50.240Z,98458.56
2023-04-01T10:33:44.157Z,98464.09
2023-04-01T10:38:22.516Z,98456.50
2023-04-01T10:43:19.585Z,98473.50
2023-04-01T10:48:06.352Z,98469.50
2023-04-01T10:52:38.554Z,98474.03
2023-04-01T10:57:05.783Z,98483.06
2023-04-01T11:02:11.272Z,98472.63
2023-04-01T11:07:31.205Z,98483.31
2023-04-01T11:12:14.126Z,98479.72
2023-04-01T11:16:58.237Z,98478.72
2023-04-01T11:21:45.018Z,98465.47
2023-04-01T11:26:08.261Z,98462.19
2023-04-01T11:31:01.493Z,98461.00
2023-04-01T11:35:27.973Z,98463.59
2023-04-01T11:39:39.815Z,98465.34
2023-04-01T11:43:58.056Z,98473.25
2023-04-01T11:48:45.868Z,98466.34
2023-04-01T11:53:18.545Z,98480.63
2023-04-01T11:57:42.425Z,98473.75
2023-04-01T12:01:56.828Z,98465.75
2023-04-01T12:06:07.434Z,98458.28
2023-04-01T12:10:20.347Z,98465.78
2023-04-01T12:14:33.356Z,98472.59
2023-04-01T12:18:42.918Z,98470.09
2023-04-01T12:22:51.806Z,98469.00
2023-04-01T12:27:22.122Z,98466.69
2023-04-01T12:31:34.906Z,98457.50
2023-04-01T12:35:56.265Z,98452.94
2023-04-01T12:40:20.441Z,98445.03
2023-04-01T12:44:38.813Z,98445.91
2023-04-01T12:49:02.163Z,98456.28
2023-04-01T12:53:23.642Z,98453.47
2023-04-01T12:57:47.663Z,98455.09
2023-04-01T13:02:03.865Z,98457.06
2023-04-01T13:06:24.735Z,98456.50
2023-04-01T13:10:59.236Z,98455.75
2023-04-01T13:15:20.472Z,98445.03
2023-04-01T13:19:31.779Z,98449.91
2023-04-01T13:23:45.902Z,98438.94
2023-04-01T13:27:57.400Z,98439.63
2023-04-01T13:32:40.857Z,98452.94
2023-04-01T13:36:57.623Z,98447.31
2023-04-01T13:41:08.011Z,98446.47
2023-04-01T13:45:17.041Z,98440.91
2023-04-01T13:49:50.539Z,98439.31
2023-04-01T13:54:41.576Z,98438.31
2023-04-01T13:59:05.745Z,98433.63
2023-04-01T14:03:40.239Z,98426.13
2023-04-01T14:07:58.861Z,98418.47
2023-04-01T14:12:08.190Z,98412.91
2023-04-01T14:16:33.516Z,98414.09
2023-04-01T14:20:43.933Z,98415.97
2023-04-01T14:25:14.110Z,98413.31
2023-04-01T14:29:27.249Z,98415.84
2023-04-01T14:33:42.596Z,98414.00
2023-04-01T14:38:25.983Z,98415.56
2023-04-01T14:42:57.732Z,98409.41
2023-04-01T14:47:37.046Z,98416.66
2023-04-01T14:51:41.511Z,98413.88
2023-04-01T14:55:52.262Z,98417.50
2023-04-01T15:00:03.595Z,98413.06
2023-04-01T15:04:24.064Z,98407.94
2023-04-01T15:08:31.380Z,98404.56
2023-04-01T15:12:45.775Z,98402.03
2023-04-01T15:17:02.674Z,98411.72
2023-04-01T15:21:19.080Z,98407.22
2023-04-01T15:25:35.995Z,98412.69
2023-04-01T15:30:05.763Z,98406.72
2023-04-01T15:34:28.426Z,98411.16
2023-04-01T15:38:38.784Z,98418.34
2023-04-01T15:42:57.801Z,98417.34
2023-04-01T15:47:00.880Z,98417.09
2023-04-01T15:51:30.483Z,98415.97
2023-04-01T15:55:41.822Z,98421.03
2023-04-01T16:00:23.325Z,98436.81
2023-04-01T16:04:49.638Z,98430.03
2023-04-01T16:09:12.503Z,98428.78
2023-04-01T16:13:26.380Z,98431.78
2023-04-01T16:17:46.489Z,98443.63
2023-04-01T16:21:54.736Z,98449.31
2023-04-01T16:26:08.626Z,98456.59
2023-04-01T16:30:29.790Z,98453.25
2023-04-01T16:34:38.212Z,98460.53
2023-04-01T16:38:48.171Z,98473.09
2023-04-01T16:42:55.122Z,98478.66
2023-04-01T16:47:01.500Z,98492.31
2023-04-01T16:51:13.573Z,98500.72
2023-04-01T16:55:19.216Z,98505.38
2023-04-01T16:59:28.968Z,98502.19
2023-04-01T17:03:35.698Z,98505.06
2023-04-01T17:07:48.768Z,98525.72
2023-04-01T17:12:01.752Z,98525.16
2023-04-01T17:16:19.833Z,98543.00
2023-04-01T17:20:39.102Z,98537.22
2023-04-01T17:24:57.780Z,98549.97
2023-04-01T17:29:08.890Z,98560.03
2023-04-01T17:33:48.762Z,98555.00
2023-04-01T17:38:01.123Z,98566.66
2023-04-01T17:42:09.837Z,98573.25
2023-04-01T17:46:32.323Z,98578.22
2023-04-01T17:50:57.724Z,98589.34
2023-04-01T17:55:23.057Z,98602.03
2023-04-01T17:59:37.944Z,98610.19
2023-04-01T18:04:02.139Z,98622.69
2023-04-01T18:08:14.873Z,98615.97
2023-04-01T18:12:30.053Z,98626.72
2023-04-01T18:16:54.436Z,98634.03
2023-04-01T18:21:06.800Z,98638.63
2023-04-01T18:25:23.581Z,98648.53
2023-04-01T18:29:34.909Z,98648.69
2023-04-01T18:33:48.713Z,98654.03
2023-04-01T18:37:58.375Z,98668.19
2023-04-01T18:42:11.162Z,98666.56
2023-04-01T18:46:23.025Z,98682.50
2023-04-01T18:50:32.442Z,98680.81
2023-04-01T18:54:45.786Z,98691.56
2023-04-01T18:58:55.906Z,98703.06
2023-04-01T19:03:03.801Z,98714.59
2023-04-01T19:07:42.017Z,98721.69
2023-04-01T19:11:55.413Z,98722.75
2023-04-01T19:16:11.516Z,98733.38
2023-04-01T19:20:22.484Z,98724.69
2023-04-01T19:24:47.617Z,98735.41
2023-04-01T19:28:57.692Z,98729.41
2023-04-01T19:33:16.144Z,98737.50
2023-04-01T19:37:31.759Z,98748.13
2023-04-01T19:41:41.721Z,98744.75
2023-04-01T19:45:50.065Z,98749.28
2023-04-01T19:50:04.641Z,98756.44
2023-04-01T19:54:21.542Z,98765.34
2023-04-01T19:58:31.121Z,98747.94
2023-04-01T20:02:46.160Z,98767.41
2023-04-01T20:06:57.891Z,98769.22
2023-04-01T20:11:14.540Z,98765.78
2023-04-01T20:15:30.942Z,98766.72
2023-04-01T20:19:41.146Z,98766.00
2023-04-01T20:23:49.755Z,98764.34
2023-04-01T20:27:58.096Z,98766.19
2023-04-01T20:32:11.166Z,98768.03
2023-04-01T20:36:23.299Z,98770.66
2023-04-01T20:40:34.363Z,98776.81
2023-04-01T20:44:44.856Z,98769.84
2023-04-01T20:49:13.192Z,98763.78
2023-04-01T20:53:22.290Z,98772.56
2023-04-01T20:57:34.158Z,98774.31
2023-04-01T21:01:45.425Z,98777.84
2023-04-01T21:06:17.128Z,98781.41
2023-04-01T21:10:31.881Z,98789.28
2023-04-01T21:14:59.370Z,98784.00
2023-04-01T21:19:21.661Z,98785.78
2023-04-01T21:23:59.215Z,98801.59
2023-04-01T21:28:20.848Z,98801.66
2023-04-01T21:32:36.629Z,98810.41
2023-04-01T21:37:01.364Z,98811.28
2023-04-01T21:41:42.499Z,98817.41
2023-04-01T21:46:11.277Z,98813.00
2023-04-01T21:51:03.812Z,98814.72
2023-04-01T21:55:46.032Z,98815.66
2023-04-01T22:00:16.856Z,98819.16
2023-04-01T22:04:34.606Z,98812.19
2023-04-01T22:08:50.030Z,98819.25
2023-04-01T22:13:01.640Z,98810.50
2023-04-01T22:17:14.691Z,98817.50
2023-04-01T22:21:25.692Z,98822.78
2023-04-01T22:25:35.836Z,98828.03
2023-04-01T22:29:44.553Z,98819.31
2023-04-01T22:33:56.151Z,98825.44
2023-04-01T22:38:10.159Z,98819.31
2023-04-01T22:42:32.186Z,98824.56
2023-04-01T22:46:56.104Z,98821.94
2023-04-01T22:51:07.377Z,98828.09
2023-04-01T22:55:16.127Z,98820.19
2023-04-01T22:59:26.174Z,98821.94
2023-04-01T23:03:32.114Z,98831.63
2023-04-01T23:07:50.059Z,98828.09
2023-04-01T23:11:57.306Z,98830.72
2023-04-01T23:16:02.670Z,98829.84
2023-04-01T23:20:19.056Z,98839.53
2023-04-01T23:24:28.386Z,98843.03
2023-04-01T23:28:51.109Z,98841.28
2023-04-01T23:32:55.687Z,98845.69
2023-04-01T23:37:03.044Z,98855.34
2023-04-01T23:41:07.748Z,98843.91
2023-04-01T23:45:18.711Z,98851.78
2023-04-01T23:49:26.795Z,98851.81
2023-04-01T23:53:32.516Z,98852.63
2023-04-01T23:57:37.829Z,98859.69
